« 懐古蔵出:日本縦断 与那国島 2001/11/3 sat | トップページ | 懐古蔵出:日本縦断 与那国島2 2001/11/4 sun »

2020/04/28

定点 富山空港 2020/4/28 tue

世の中、GWを控え外出自粛が叫ばれています。小生にはGW等は関係無い業態なので、思い立てばパトロール。断密、本日の接触者なし。

午後青組さんからプレス発表。ななな・なんと、とうとう富山に一便も無い日がくる。313/316も運休の日が発表されました。

5月3日~5月5日,7日,9日,12日,14日,16日,19日,21日,23日,26日,28日,30日

RJNT 272300Z VRB03KT 9999 FEW030 12/02 Q1019

20200428_rjnt_00kanban

とうとう浜辺の駐車場も自粛看板

20200428_rjnt_01ja55an

今日から寒気が抜けて、春の空になるそう。

20200428_rjnt_02toyamabay

生簀では、収穫中。

20200428_rjnt_03n542kd

WGN7355 ZSPD-PANC N542KD MD-11F

最近やたらと耳につくウエスタン・グローバルさん

20200428_rjnt_04ja55an

ANA313 RJTT-RJNT JA55AN B737-881

RJNT 280000Z VRB02KT 9999 FEW030TCU SCT080 BKN110 15/03 Q1019

20200428_rjnt_05ja55an

ハマダイコンかな

20200428_rjnt_06ja6516

JA6516↓ AS350B3 AKF

20200428_rjnt_07ja55an

20200428_rjnt_08ja55an

ANA316 RJNT-RJTT JA55AN B737-881

RJNT 280100Z 28008KT 250V310 9999 VCSH FEW030 SCT040 BKN070 14/04 Q1019

20200428_rjnt_09ja6512

JA6512↓ AS350B3 AKF

20200428_rjnt_10ja119w

JA119W↑ AW139 富山県消防防災

20200428_rjnt_11ja6516

JA6516↑

20200428_rjnt_12ja119w

JA119W↓ 今日は、午前に訓練

|

« 懐古蔵出:日本縦断 与那国島 2001/11/3 sat | トップページ | 懐古蔵出:日本縦断 与那国島2 2001/11/4 sun »

富山空港」カテゴリの記事

コメント

コメントを書く



(ウェブ上には掲載しません)


コメントは記事投稿者が公開するまで表示されません。



« 懐古蔵出:日本縦断 与那国島 2001/11/3 sat | トップページ | 懐古蔵出:日本縦断 与那国島2 2001/11/4 sun »